CYTQ

Tasiujaq Airport

ICAO Code CYTQ
IATA Code YTQ
Name Tasiujaq Airport
Location Tasiujaq, Quebec, CA
Elevation 121 Feet / 36.9 Meters
Latitude 58.66777778
Longitude -69.95583333
METAR CYTQ 182100Z 26011KT 15SM FEW040 27/09 A2981 RMK SC2 LAST OBS NEXT/191200 UTC SLP098 DENSITY ALT 1700FT
Extra information Display NOTAMS
Display Charts
Runway Length Width Surface Elevation
05 3519 ft 100 ft GRAVEL 121 ft
23 3519 ft 100 ft GRAVEL 103 ft